Llica d'Amunt, Spain
Current Conditions -  °F | °C
As of 5:00 PM on Saturday 25 Oct 2014 (Local Time) from LELL Reporting Station
Clear Clear  
Wind Chill: 24°   Ceiling: Unl
Heat Index: 24°   Visibility: 6mi
Dew Point: 13°   Wind: 10mph
Humidity: 50%   Direction: 110°ESE
Pressure: 30.06"   Gusts: NA
Location:  41.62°N, 2.23°E
Report Text: LELL 251500Z 11009KT 070V140 CAVOK 24/13 Q1018
Loading
Personal Weather Stations






























Interactive Weather Map
Tropical Storm Tracking
New forecast layout! Learn more

10-Day Weather Forecast

Advertisements
Track Severe Weather on mobile